createdAt,value
2024-01-11T00:00:55.365Z,593.00
2024-01-11T00:01:55.373Z,597.00
2024-01-11T00:02:55.398Z,598.00
2024-01-11T00:03:55.438Z,596.00
2024-01-11T00:04:55.546Z,597.00
2024-01-11T00:05:55.526Z,599.00
2024-01-11T00:06:55.547Z,600.00
2024-01-11T00:07:55.617Z,598.00
2024-01-11T00:08:55.636Z,598.00
2024-01-11T00:09:55.702Z,598.00
2024-01-11T00:10:57.294Z,597.00
2024-01-11T00:11:55.697Z,596.00
2024-01-11T00:12:55.669Z,595.00
2024-01-11T00:13:55.797Z,595.00
2024-01-11T00:14:55.718Z,595.00
2024-01-11T00:15:55.787Z,593.00
2024-01-11T00:16:55.823Z,593.00
2024-01-11T00:17:55.908Z,593.00
2024-01-11T00:18:55.872Z,597.00
2024-01-11T00:19:55.841Z,596.00
2024-01-11T00:20:55.923Z,598.00
2024-01-11T00:21:55.916Z,598.00
2024-01-11T00:22:55.950Z,596.00
2024-01-11T00:23:55.965Z,595.00
2024-01-11T00:24:55.971Z,595.00
2024-01-11T00:25:56.055Z,596.00
2024-01-11T00:26:56.060Z,598.00
2024-01-11T00:27:56.105Z,598.00
2024-01-11T00:28:56.128Z,595.00
2024-01-11T00:29:56.146Z,593.00
2024-01-11T00:30:56.145Z,593.00
2024-01-11T00:31:56.252Z,595.00
2024-01-11T00:32:56.399Z,596.00
2024-01-11T00:33:56.357Z,597.00
2024-01-11T00:34:56.330Z,594.00
2024-01-11T00:35:56.251Z,594.00
2024-01-11T00:36:56.243Z,593.00
2024-01-11T00:37:56.367Z,592.00
2024-01-11T00:38:56.351Z,591.00
2024-01-11T00:39:56.368Z,592.00
2024-01-11T00:40:56.458Z,590.00
2024-01-11T00:41:56.446Z,592.00
2024-01-11T00:42:56.461Z,591.00
2024-01-11T00:43:56.563Z,591.00
2024-01-11T00:45:27.192Z,597.00
2024-01-11T00:46:27.212Z,596.00
2024-01-11T00:47:27.288Z,596.00
2024-01-11T00:48:27.278Z,597.00
2024-01-11T00:49:27.312Z,597.00
2024-01-11T00:50:27.267Z,597.00
2024-01-11T00:51:27.194Z,593.00
2024-01-11T00:52:27.208Z,597.00
2024-01-11T00:53:27.246Z,596.00
2024-01-11T00:54:27.177Z,596.00
2024-01-11T00:55:27.192Z,596.00
2024-01-11T00:56:27.228Z,597.00
2024-01-11T00:57:27.207Z,598.00
2024-01-11T00:58:27.222Z,598.00
2024-01-11T00:59:27.295Z,595.00
2024-01-11T01:00:27.239Z,595.00
2024-01-11T01:01:27.250Z,592.00
2024-01-11T01:02:27.402Z,593.00
2024-01-11T01:03:27.417Z,592.00
2024-01-11T01:04:27.416Z,592.00
2024-01-11T01:05:27.631Z,589.00
2024-01-11T01:06:27.589Z,587.00
2024-01-11T01:07:27.579Z,582.00
2024-01-11T01:08:27.697Z,582.00
2024-01-11T01:09:27.696Z,581.00
2024-01-11T01:10:27.791Z,583.00
2024-01-11T01:11:27.843Z,585.00
2024-01-11T01:12:27.919Z,588.00
2024-01-11T01:13:27.931Z,588.00
2024-01-11T01:14:28.052Z,591.00
2024-01-11T01:15:27.985Z,589.00
2024-01-11T01:16:28.050Z,589.00
2024-01-11T01:17:28.209Z,588.00
2024-01-11T01:18:28.170Z,587.00
2024-01-11T01:19:28.378Z,582.00
2024-01-11T01:20:28.332Z,584.00
2024-01-11T01:21:28.274Z,586.00
2024-01-11T01:22:28.322Z,584.00
2024-01-11T01:23:28.432Z,585.00
2024-01-11T01:24:28.417Z,584.00
2024-01-11T01:25:28.434Z,582.00
2024-01-11T01:26:28.521Z,581.00
2024-01-11T01:27:28.526Z,582.00
2024-01-11T01:28:28.548Z,580.00
2024-01-11T01:29:28.642Z,579.00
2024-01-11T01:30:28.687Z,578.00
2024-01-11T01:31:28.682Z,579.00
2024-01-11T01:32:28.878Z,580.00
2024-01-11T01:33:29.043Z,576.00
2024-01-11T01:34:28.894Z,579.00
2024-01-11T01:35:29.000Z,579.00
2024-01-11T01:36:28.850Z,579.00
2024-01-11T01:37:28.884Z,578.00
2024-01-11T01:38:29.052Z,578.00
2024-01-11T01:39:28.965Z,578.00
2024-01-11T01:40:29.011Z,580.00
2024-01-11T01:41:29.076Z,580.00
2024-01-11T01:42:29.082Z,578.00
2024-01-11T01:43:29.129Z,578.00
2024-01-11T01:44:29.193Z,578.00
2024-01-11T01:45:29.147Z,578.00
2024-01-11T01:46:29.230Z,579.00
2024-01-11T01:47:29.354Z,580.00
2024-01-11T01:48:29.421Z,582.00
2024-01-11T01:49:29.331Z,580.00
2024-01-11T01:50:29.369Z,577.00
2024-01-11T01:51:29.352Z,577.00
2024-01-11T01:52:29.389Z,578.00
2024-01-11T01:53:29.546Z,579.00
2024-01-11T01:54:29.455Z,579.00
2024-01-11T01:55:29.459Z,579.00
2024-01-11T01:56:29.506Z,579.00
2024-01-11T01:57:29.540Z,578.00
2024-01-11T01:58:29.578Z,578.00
2024-01-11T01:59:29.663Z,576.00
2024-01-11T02:00:29.625Z,576.00
2024-01-11T02:01:29.668Z,576.00
2024-01-11T02:02:29.733Z,577.00
2024-01-11T02:03:29.688Z,576.00
2024-01-11T02:04:29.728Z,575.00
2024-01-11T02:05:29.844Z,572.00
2024-01-11T02:06:29.887Z,573.00
2024-01-11T02:07:29.790Z,570.00
2024-01-11T02:08:29.873Z,569.00
2024-01-11T02:09:29.888Z,568.00
2024-01-11T02:10:29.896Z,567.00
2024-01-11T02:11:30.003Z,567.00
2024-01-11T02:12:29.938Z,566.00
2024-01-11T02:13:29.932Z,565.00
2024-01-11T02:14:29.998Z,564.00
2024-01-11T02:15:30.012Z,562.00
2024-01-11T02:16:30.017Z,563.00
2024-01-11T02:17:30.104Z,563.00
2024-01-11T02:18:30.176Z,561.00
2024-01-11T02:19:30.234Z,558.00
2024-01-11T02:20:30.152Z,559.00
2024-01-11T02:21:30.151Z,559.00
2024-01-11T02:22:30.147Z,559.00
2024-01-11T02:23:30.216Z,558.00
2024-01-11T02:24:30.201Z,560.00
2024-01-11T02:25:30.212Z,558.00
2024-01-11T02:26:30.253Z,558.00
2024-01-11T02:27:30.229Z,560.00
2024-01-11T02:28:30.342Z,559.00
2024-01-11T02:29:30.321Z,560.00
2024-01-11T02:30:30.345Z,560.00
2024-01-11T02:31:30.282Z,561.00
2024-01-11T02:32:30.404Z,561.00
2024-01-11T02:33:30.386Z,561.00
2024-01-11T02:34:30.679Z,564.00
2024-01-11T02:35:30.453Z,564.00
2024-01-11T02:36:30.390Z,564.00
2024-01-11T02:37:30.402Z,560.00
2024-01-11T02:38:30.479Z,561.00
2024-01-11T02:39:30.471Z,561.00
2024-01-11T02:40:30.474Z,561.00
2024-01-11T02:41:30.485Z,562.00
2024-01-11T02:42:30.497Z,562.00
2024-01-11T02:43:30.478Z,558.00
2024-01-11T02:44:30.508Z,558.00
2024-01-11T02:45:30.518Z,558.00
2024-01-11T02:46:30.528Z,558.00
2024-01-11T02:47:30.676Z,559.00
2024-01-11T02:48:30.812Z,560.00
2024-01-11T02:49:30.644Z,560.00
2024-01-11T02:50:30.601Z,560.00
2024-01-11T02:51:30.588Z,559.00
2024-01-11T02:52:30.624Z,556.00
2024-01-11T02:53:30.624Z,555.00
2024-01-11T02:54:30.655Z,554.00
2024-01-11T02:55:30.652Z,555.00
2024-01-11T02:56:30.760Z,556.00
2024-01-11T02:57:30.691Z,554.00
2024-01-11T02:58:30.679Z,554.00
2024-01-11T02:59:30.766Z,553.00
2024-01-11T03:00:30.734Z,555.00
2024-01-11T03:01:30.702Z,554.00
2024-01-11T03:02:30.820Z,556.00
2024-01-11T03:03:30.811Z,559.00
2024-01-11T03:04:30.779Z,559.00
2024-01-11T03:05:30.850Z,558.00
2024-01-11T03:06:30.781Z,556.00
2024-01-11T03:07:30.780Z,556.00
2024-01-11T03:08:30.817Z,556.00
2024-01-11T03:09:30.794Z,554.00
2024-01-11T03:10:30.836Z,552.00
2024-01-11T03:11:30.840Z,553.00
2024-01-11T03:12:30.850Z,556.00
2024-01-11T03:13:30.876Z,557.00
2024-01-11T03:14:30.863Z,556.00
2024-01-11T03:15:30.830Z,555.00
2024-01-11T03:16:30.859Z,555.00
2024-01-11T03:17:31.020Z,551.00
2024-01-11T03:18:31.028Z,549.00
2024-01-11T03:19:30.944Z,549.00
2024-01-11T03:20:31.084Z,550.00
2024-01-11T03:21:30.949Z,549.00
2024-01-11T03:22:30.955Z,551.00
2024-01-11T03:23:30.991Z,552.00
2024-01-11T03:24:30.967Z,551.00
2024-01-11T03:25:30.995Z,550.00
2024-01-11T03:26:31.013Z,549.00
2024-01-11T03:27:30.990Z,548.00
2024-01-11T03:28:31.017Z,550.00
2024-01-11T03:29:31.012Z,550.00
2024-01-11T03:30:31.020Z,549.00
2024-01-11T03:31:31.014Z,550.00
2024-01-11T03:32:31.203Z,549.00
2024-01-11T03:33:31.231Z,549.00
2024-01-11T03:34:31.213Z,551.00
2024-01-11T03:35:31.143Z,551.00
2024-01-11T03:36:31.130Z,554.00
2024-01-11T03:37:31.129Z,554.00
2024-01-11T03:38:31.182Z,554.00
2024-01-11T03:39:31.203Z,553.00
2024-01-11T03:40:31.207Z,549.00
2024-01-11T03:41:31.269Z,550.00
2024-01-11T03:42:31.229Z,548.00
2024-01-11T03:43:31.247Z,547.00
2024-01-11T03:44:31.313Z,548.00
2024-01-11T03:45:31.289Z,548.00
2024-01-11T03:46:31.322Z,548.00
2024-01-11T03:47:31.464Z,548.00
2024-01-11T03:48:31.387Z,547.00
2024-01-11T03:49:31.347Z,546.00
2024-01-11T03:50:31.362Z,547.00
2024-01-11T03:51:31.333Z,549.00
2024-01-11T03:52:31.382Z,550.00
2024-01-11T03:53:31.444Z,548.00
2024-01-11T03:54:31.462Z,548.00
2024-01-11T03:55:31.437Z,550.00
2024-01-11T03:56:31.535Z,549.00
2024-01-11T03:57:31.525Z,548.00
2024-01-11T03:58:31.500Z,547.00
2024-01-11T03:59:31.533Z,546.00
2024-01-11T04:00:31.546Z,546.00
2024-01-11T04:01:31.581Z,547.00
2024-01-11T04:02:31.693Z,548.00
2024-01-11T04:03:31.693Z,547.00
2024-01-11T04:04:31.677Z,548.00
2024-01-11T04:05:31.807Z,548.00
2024-01-11T04:06:31.763Z,548.00
2024-01-11T04:07:31.759Z,550.00
2024-01-11T04:08:31.850Z,550.00
2024-01-11T04:09:31.866Z,552.00
2024-01-11T04:10:31.934Z,550.00
2024-01-11T04:11:32.042Z,550.00
2024-01-11T04:12:31.974Z,548.00
2024-01-11T04:13:32.064Z,546.00
2024-01-11T04:14:32.182Z,550.00
2024-01-11T04:15:32.096Z,550.00
2024-01-11T04:16:32.178Z,549.00
2024-01-11T04:17:32.295Z,549.00
2024-01-11T04:18:32.327Z,551.00
2024-01-11T04:19:32.399Z,549.00
2024-01-11T04:20:32.392Z,549.00
2024-01-11T04:21:32.387Z,547.00
2024-01-11T04:22:32.460Z,546.00
2024-01-11T04:23:32.606Z,546.00
2024-01-11T04:24:32.569Z,547.00
2024-01-11T04:25:32.621Z,547.00
2024-01-11T04:26:32.709Z,548.00
2024-01-11T04:27:32.732Z,546.00
2024-01-11T04:28:32.809Z,545.00
2024-01-11T04:29:32.887Z,545.00
2024-01-11T04:30:40.600Z,551.00
2024-01-11T04:31:48.259Z,554.00
2024-01-11T04:32:48.392Z,555.00
2024-01-11T04:33:48.313Z,552.00
2024-01-11T04:34:48.201Z,551.00
2024-01-11T04:35:48.332Z,549.00
2024-01-11T04:36:48.220Z,548.00
2024-01-11T04:37:48.225Z,549.00
2024-01-11T04:38:48.225Z,548.00
2024-01-11T04:39:48.224Z,548.00
2024-01-11T04:40:48.249Z,548.00
2024-01-11T04:41:48.278Z,549.00
2024-01-11T04:42:48.224Z,548.00
2024-01-11T04:43:48.244Z,547.00
2024-01-11T04:44:48.274Z,546.00
2024-01-11T04:45:48.210Z,546.00
2024-01-11T04:46:48.228Z,545.00
2024-01-11T04:47:48.414Z,544.00
2024-01-11T04:48:48.312Z,544.00
2024-01-11T04:49:48.234Z,544.00
2024-01-11T04:50:48.368Z,543.00
2024-01-11T04:51:48.245Z,543.00
2024-01-11T04:52:48.231Z,546.00
2024-01-11T04:53:48.292Z,547.00
2024-01-11T04:54:48.229Z,546.00
2024-01-11T04:55:48.276Z,546.00
2024-01-11T04:56:48.289Z,545.00
2024-01-11T04:57:48.301Z,542.00
2024-01-11T04:58:48.273Z,543.00
2024-01-11T04:59:48.283Z,543.00
2024-01-11T05:00:48.371Z,541.00
2024-01-11T05:01:48.241Z,542.00
2024-01-11T05:02:48.399Z,541.00
2024-01-11T05:03:48.341Z,539.00
2024-01-11T05:04:48.237Z,541.00
2024-01-11T05:05:48.454Z,541.00
2024-01-11T05:06:48.353Z,540.00
2024-01-11T05:07:48.297Z,540.00
2024-01-11T05:08:48.295Z,542.00
2024-01-11T05:09:48.308Z,542.00
2024-01-11T05:10:48.273Z,543.00
2024-01-11T05:11:48.313Z,543.00
2024-01-11T05:12:48.280Z,543.00
2024-01-11T05:13:48.271Z,543.00
2024-01-11T05:14:48.297Z,542.00
2024-01-11T05:15:48.312Z,544.00
2024-01-11T05:16:48.276Z,544.00
2024-01-11T05:17:48.374Z,546.00
2024-01-11T05:18:48.354Z,547.00
2024-01-11T05:19:48.335Z,546.00
2024-01-11T05:20:48.363Z,547.00
2024-01-11T05:21:48.294Z,546.00
2024-01-11T05:22:48.291Z,546.00
2024-01-11T05:23:48.296Z,544.00
2024-01-11T05:24:48.321Z,544.00
2024-01-11T05:25:48.270Z,542.00
2024-01-11T05:26:48.444Z,541.00
2024-01-11T05:27:48.302Z,540.00
2024-01-11T05:28:48.301Z,539.00
2024-01-11T05:29:48.348Z,542.00
2024-01-11T05:30:48.335Z,541.00
2024-01-11T05:31:48.541Z,538.00
2024-01-11T05:32:48.460Z,539.00
2024-01-11T05:33:49.072Z,539.00
2024-01-11T05:34:48.430Z,540.00
2024-01-11T05:35:48.362Z,539.00
2024-01-11T05:36:48.336Z,537.00
2024-01-11T05:37:48.343Z,537.00
2024-01-11T05:38:48.296Z,536.00
2024-01-11T05:39:48.323Z,536.00
2024-01-11T05:40:48.323Z,536.00
2024-01-11T05:41:48.404Z,536.00
2024-01-11T05:42:48.315Z,537.00
2024-01-11T05:43:48.354Z,537.00
2024-01-11T05:44:48.304Z,538.00
2024-01-11T05:45:48.665Z,536.00
2024-01-11T05:46:48.309Z,536.00
2024-01-11T05:47:48.419Z,537.00
2024-01-11T05:48:48.441Z,538.00
2024-01-11T05:49:48.381Z,538.00
2024-01-11T05:50:48.329Z,538.00
2024-01-11T05:51:48.342Z,540.00
2024-01-11T05:52:48.353Z,538.00
2024-01-11T05:53:48.413Z,539.00
2024-01-11T05:54:48.472Z,542.00
2024-01-11T05:55:48.471Z,540.00
2024-01-11T05:56:48.530Z,541.00
2024-01-11T05:57:48.500Z,538.00
2024-01-11T05:58:48.534Z,537.00
2024-01-11T05:59:48.582Z,536.00
2024-01-11T06:01:11.618Z,537.00
2024-01-11T06:01:48.628Z,536.00
2024-01-11T06:02:48.639Z,538.00
2024-01-11T06:03:48.748Z,538.00
2024-01-11T06:04:49.485Z,540.00
2024-01-11T06:05:48.704Z,539.00
2024-01-11T06:06:48.639Z,537.00
2024-01-11T06:07:48.671Z,536.00
2024-01-11T06:08:48.632Z,536.00
2024-01-11T06:09:48.681Z,535.00
2024-01-11T06:10:48.691Z,534.00
2024-01-11T06:11:48.757Z,533.00
2024-01-11T06:12:48.756Z,534.00
2024-01-11T06:13:48.822Z,535.00
2024-01-11T06:14:48.959Z,534.00
2024-01-11T06:15:48.893Z,532.00
2024-01-11T06:16:48.912Z,533.00
2024-01-11T06:17:49.143Z,537.00
2024-01-11T06:18:49.009Z,539.00
2024-01-11T06:19:49.006Z,541.00
2024-01-11T06:20:49.287Z,541.00
2024-01-11T06:21:49.075Z,541.00
2024-01-11T06:22:49.070Z,539.00
2024-01-11T06:23:49.117Z,538.00
2024-01-11T06:24:49.203Z,538.00
2024-01-11T06:25:49.223Z,538.00
2024-01-11T06:26:49.282Z,539.00
2024-01-11T06:27:49.973Z,537.00
2024-01-11T06:28:49.340Z,535.00
2024-01-11T06:29:49.461Z,534.00
2024-01-11T06:30:49.494Z,536.00
2024-01-11T06:31:49.434Z,538.00
2024-01-11T06:32:49.538Z,543.00
2024-01-11T06:33:51.586Z,549.00
2024-01-11T06:34:49.614Z,554.00
2024-01-11T06:35:49.599Z,564.00
2024-01-11T06:36:49.632Z,572.00
2024-01-11T06:37:49.657Z,586.00
2024-01-11T06:38:49.754Z,599.00
2024-01-11T06:39:49.750Z,648.00
2024-01-11T06:40:50.001Z,666.00
2024-01-11T06:41:49.875Z,675.00
2024-01-11T06:42:49.875Z,724.00
2024-01-11T06:43:49.978Z,734.00
2024-01-11T06:44:50.013Z,734.00
2024-01-11T06:46:13.026Z,768.00
2024-01-11T06:46:50.004Z,852.00
2024-01-11T06:47:50.181Z,861.00
2024-01-11T06:48:50.059Z,846.00
2024-01-11T06:49:50.000Z,828.00
2024-01-11T06:50:50.633Z,819.00
2024-01-11T06:51:50.026Z,820.00
2024-01-11T06:52:51.010Z,830.00
2024-01-11T06:53:50.140Z,828.00
2024-01-11T06:54:50.169Z,891.00
2024-01-11T06:55:50.213Z,890.00
2024-01-11T06:56:50.348Z,889.00
2024-01-11T06:57:50.274Z,881.00
2024-01-11T06:58:50.295Z,884.00
2024-01-11T06:59:50.611Z,884.00
2024-01-11T07:00:50.491Z,887.00
2024-01-11T07:01:50.434Z,887.00
2024-01-11T07:02:50.600Z,887.00
2024-01-11T07:03:50.588Z,888.00
2024-01-11T07:04:50.516Z,891.00
2024-01-11T07:05:51.137Z,891.00
2024-01-11T07:06:50.612Z,887.00
2024-01-11T07:07:50.650Z,885.00
2024-01-11T07:08:50.759Z,875.00
2024-01-11T07:09:50.687Z,855.00
2024-01-11T07:10:52.164Z,862.00
2024-01-11T07:11:50.794Z,859.00
2024-01-11T07:12:50.724Z,859.00
2024-01-11T07:13:50.735Z,856.00
2024-01-11T07:14:50.782Z,855.00
2024-01-11T07:15:51.057Z,854.00
2024-01-11T07:16:50.843Z,857.00
2024-01-11T07:17:50.989Z,859.00
2024-01-11T07:18:50.867Z,860.00
2024-01-11T07:19:51.568Z,864.00
2024-01-11T07:20:50.866Z,862.00
2024-01-11T07:21:50.856Z,867.00
2024-01-11T07:22:50.852Z,875.00
2024-01-11T07:23:50.906Z,878.00
2024-01-11T07:24:50.855Z,878.00
2024-01-11T07:25:50.865Z,879.00
2024-01-11T07:26:50.902Z,884.00
2024-01-11T07:27:50.870Z,883.00
2024-01-11T07:28:50.933Z,883.00
2024-01-11T07:29:51.027Z,883.00
2024-01-11T07:30:51.000Z,886.00
2024-01-11T07:31:50.949Z,883.00
2024-01-11T07:32:51.244Z,884.00
2024-01-11T07:33:51.105Z,879.00
2024-01-11T07:34:51.035Z,879.00
2024-01-11T07:35:51.623Z,884.00
2024-01-11T07:36:51.045Z,884.00
2024-01-11T07:37:51.102Z,883.00
2024-01-11T07:38:51.190Z,894.00
2024-01-11T07:39:51.132Z,904.00
2024-01-11T07:40:51.529Z,915.00
2024-01-11T07:41:52.070Z,936.00
2024-01-11T07:42:51.208Z,967.00
2024-01-11T07:43:54.472Z,981.00
2024-01-11T07:44:51.369Z,996.00
2024-01-11T07:45:52.038Z,1007.00
2024-01-11T07:46:54.395Z,1075.00
2024-01-11T07:47:51.342Z,1087.00
2024-01-11T07:48:51.364Z,1100.00
2024-01-11T07:49:51.290Z,1111.00
2024-01-11T07:50:51.308Z,1123.00
2024-01-11T07:51:51.244Z,1146.00
2024-01-11T07:52:51.267Z,1181.00
2024-01-11T07:53:51.272Z,1203.00
2024-01-11T07:54:51.269Z,1216.00
2024-01-11T07:55:51.374Z,1235.00
2024-01-11T07:56:51.327Z,1244.00
2024-01-11T07:57:51.297Z,1263.00
2024-01-11T07:58:51.247Z,1277.00
2024-01-11T07:59:51.350Z,1294.00
2024-01-11T08:00:51.451Z,1336.00
2024-01-11T08:01:51.424Z,1336.00
2024-01-11T08:02:51.528Z,1340.00
2024-01-11T08:03:51.582Z,1353.00
2024-01-11T08:04:51.609Z,1377.00
2024-01-11T08:05:52.109Z,1391.00
2024-01-11T08:06:51.772Z,1403.00
2024-01-11T08:07:51.815Z,1417.00
2024-01-11T08:08:51.901Z,1431.00
2024-01-11T08:09:51.902Z,1446.00
2024-01-11T08:10:51.898Z,1458.00
2024-01-11T08:11:53.148Z,1465.00
2024-01-11T08:12:52.001Z,1472.00
2024-01-11T08:13:52.075Z,1484.00
2024-01-11T08:14:52.250Z,1494.00
2024-01-11T08:15:52.135Z,1505.00
2024-01-11T08:16:52.191Z,1519.00
2024-01-11T08:17:52.440Z,1536.00
2024-01-11T08:18:52.346Z,1545.00
2024-01-11T08:19:52.335Z,1557.00
2024-01-11T08:20:52.514Z,1569.00
2024-01-11T08:21:52.398Z,1580.00
2024-01-11T08:22:52.483Z,1587.00
2024-01-11T08:23:52.558Z,1600.00
2024-01-11T08:24:53.725Z,1608.00
2024-01-11T08:25:52.621Z,1616.00
2024-01-11T08:26:52.719Z,1629.00
2024-01-11T08:27:52.722Z,1635.00
2024-01-11T08:28:52.739Z,1643.00
2024-01-11T08:29:52.775Z,1652.00
2024-01-11T08:30:53.140Z,1663.00
2024-01-11T08:31:52.838Z,1675.00
2024-01-11T08:32:53.006Z,1709.00
2024-01-11T08:33:53.207Z,1724.00
2024-01-11T08:34:53.139Z,1714.00
2024-01-11T08:35:53.063Z,1693.00
2024-01-11T08:36:53.053Z,1681.00
2024-01-11T08:37:53.165Z,1676.00
2024-01-11T08:38:53.204Z,1673.00
2024-01-11T08:39:53.248Z,1816.00
2024-01-11T08:40:53.290Z,1698.00
2024-01-11T08:41:53.356Z,1686.00
2024-01-11T08:42:53.373Z,1689.00
2024-01-11T08:43:53.426Z,1698.00
2024-01-11T08:44:53.500Z,1693.00
2024-01-11T08:45:53.514Z,1695.00
2024-01-11T08:46:53.562Z,1700.00
2024-01-11T08:47:53.760Z,1703.00
2024-01-11T08:48:53.658Z,1711.00
2024-01-11T08:49:53.657Z,1706.00
2024-01-11T08:50:53.781Z,1730.00
2024-01-11T08:51:53.729Z,1768.00
2024-01-11T08:52:53.811Z,1773.00
2024-01-11T08:53:53.843Z,1783.00
2024-01-11T08:54:53.869Z,1801.00
2024-01-11T08:55:53.899Z,1809.00
2024-01-11T08:56:53.947Z,1817.00
2024-01-11T08:57:53.965Z,1829.00
2024-01-11T08:58:53.999Z,1840.00
2024-01-11T08:59:54.073Z,1848.00
2024-01-11T09:00:54.105Z,1853.00
2024-01-11T09:02:02.339Z,1860.00
2024-01-11T09:02:55.093Z,1869.00
2024-01-11T09:03:54.133Z,1877.00
2024-01-11T09:04:54.057Z,1884.00
2024-01-11T09:05:54.192Z,1903.00
2024-01-11T09:06:54.089Z,1903.00
2024-01-11T09:07:54.600Z,1911.00
2024-01-11T09:08:54.148Z,1926.00
2024-01-11T09:09:57.143Z,1928.00
2024-01-11T09:10:54.151Z,1932.00
2024-01-11T09:11:54.067Z,1930.00
2024-01-11T09:12:54.103Z,1927.00
2024-01-11T09:13:54.093Z,1936.00
2024-01-11T09:14:54.227Z,1942.00
2024-01-11T09:15:54.198Z,1930.00
2024-01-11T09:16:54.157Z,1932.00
2024-01-11T09:17:54.221Z,1933.00
2024-01-11T09:18:54.139Z,1939.00
2024-01-11T09:19:54.142Z,1949.00
2024-01-11T09:20:54.253Z,1945.00
2024-01-11T09:21:54.131Z,1938.00
2024-01-11T09:22:54.122Z,1945.00
2024-01-11T09:23:54.111Z,1950.00
2024-01-11T09:24:54.125Z,1974.00
2024-01-11T09:25:54.129Z,1984.00
2024-01-11T09:26:54.136Z,1983.00
2024-01-11T09:27:54.144Z,1982.00
2024-01-11T09:28:54.104Z,1976.00
2024-01-11T09:29:56.864Z,1990.00
2024-01-11T09:30:54.179Z,2002.00
2024-01-11T09:31:54.613Z,2013.00
2024-01-11T09:32:54.280Z,2008.00
2024-01-11T09:33:54.339Z,1915.00
2024-01-11T09:34:54.095Z,1790.00
2024-01-11T09:35:54.195Z,1778.00
2024-01-11T09:36:54.182Z,1787.00
2024-01-11T09:37:54.118Z,1777.00
2024-01-11T09:38:54.211Z,1760.00
2024-01-11T09:39:54.174Z,1739.00
2024-01-11T09:40:54.151Z,1721.00
2024-01-11T09:41:54.173Z,1703.00
2024-01-11T09:42:54.151Z,1684.00
2024-01-11T09:43:54.193Z,1665.00
2024-01-11T09:44:54.163Z,1644.00
2024-01-11T09:45:54.187Z,1634.00
2024-01-11T09:46:54.599Z,1625.00
2024-01-11T09:47:54.463Z,1615.00
2024-01-11T09:48:54.198Z,1601.00
2024-01-11T09:49:54.119Z,1545.00
2024-01-11T09:50:54.127Z,1547.00
2024-01-11T09:51:54.148Z,1318.00
2024-01-11T09:52:54.184Z,1261.00
2024-01-11T09:53:54.147Z,1359.00
2024-01-11T09:54:54.127Z,1413.00
2024-01-11T09:55:54.130Z,1423.00
2024-01-11T09:56:54.136Z,1421.00
2024-01-11T09:57:54.185Z,1385.00
2024-01-11T09:58:54.167Z,1384.00
2024-01-11T09:59:54.236Z,1377.00
2024-01-11T10:00:54.172Z,1368.00
2024-01-11T10:01:54.583Z,1370.00
2024-01-11T10:02:54.364Z,1379.00
2024-01-11T10:03:54.256Z,1384.00
2024-01-11T10:04:54.187Z,1388.00
2024-01-11T10:05:54.236Z,1396.00
2024-01-11T10:06:54.204Z,1403.00
2024-01-11T10:07:54.172Z,1409.00
2024-01-11T10:08:54.170Z,1415.00
2024-01-11T10:09:54.194Z,1422.00
2024-01-11T10:10:54.261Z,1433.00
2024-01-11T10:11:54.237Z,1436.00
2024-01-11T10:12:54.201Z,1451.00
2024-01-11T10:13:54.155Z,1459.00
2024-01-11T10:14:54.574Z,1474.00
2024-01-11T10:15:54.156Z,1476.00
2024-01-11T10:16:54.178Z,1488.00
2024-01-11T10:17:54.434Z,1513.00
2024-01-11T10:18:54.351Z,1526.00
2024-01-11T10:19:54.438Z,1608.00
2024-01-11T10:20:54.268Z,1655.00
2024-01-11T10:21:54.631Z,1599.00
2024-01-11T10:22:57.143Z,1592.00
2024-01-11T10:23:54.214Z,1598.00
2024-01-11T10:24:54.229Z,1707.00
2024-01-11T10:25:54.185Z,1616.00
2024-01-11T10:26:54.190Z,1148.00
2024-01-11T10:27:54.251Z,1303.00
2024-01-11T10:28:54.233Z,1199.00
2024-01-11T10:29:54.230Z,1162.00
2024-01-11T10:30:54.222Z,1086.00
2024-01-11T10:31:54.643Z,1087.00
2024-01-11T10:32:54.277Z,960.00
2024-01-11T10:33:54.310Z,891.00
2024-01-11T10:34:54.206Z,891.00
2024-01-11T10:35:54.293Z,891.00
2024-01-11T10:36:54.636Z,999.00
2024-01-11T10:37:54.226Z,926.00
2024-01-11T10:38:54.201Z,873.00
2024-01-11T10:39:54.193Z,909.00
2024-01-11T10:40:54.192Z,912.00
2024-01-11T10:41:54.712Z,948.00
2024-01-11T10:42:54.260Z,844.00
2024-01-11T10:43:54.322Z,843.00
2024-01-11T10:44:54.217Z,932.00
2024-01-11T10:45:54.235Z,904.00
2024-01-11T10:46:54.611Z,851.00
2024-01-11T10:47:54.362Z,852.00
2024-01-11T10:48:54.308Z,835.00
2024-01-11T10:49:54.247Z,820.00
2024-01-11T10:50:54.232Z,828.00
2024-01-11T10:51:54.244Z,825.00
2024-01-11T10:52:54.259Z,799.00
2024-01-11T10:53:54.277Z,780.00
2024-01-11T10:54:54.253Z,774.00
2024-01-11T10:55:54.222Z,776.00
2024-01-11T10:56:54.280Z,791.00
2024-01-11T10:57:54.233Z,866.00
2024-01-11T10:58:54.281Z,863.00
2024-01-11T10:59:55.131Z,845.00
2024-01-11T11:00:54.250Z,795.00
2024-01-11T11:01:54.234Z,798.00
2024-01-11T11:02:54.388Z,809.00
2024-01-11T11:03:54.298Z,811.00
2024-01-11T11:04:54.256Z,806.00
2024-01-11T11:05:54.331Z,805.00
2024-01-11T11:06:54.678Z,806.00
2024-01-11T11:07:54.256Z,787.00
2024-01-11T11:08:54.256Z,796.00
2024-01-11T11:09:55.232Z,805.00
2024-01-11T11:10:54.300Z,797.00
2024-01-11T11:11:54.232Z,792.00
2024-01-11T11:12:54.248Z,798.00
2024-01-11T11:13:54.250Z,841.00
2024-01-11T11:14:54.264Z,848.00
2024-01-11T11:15:54.266Z,847.00
2024-01-11T11:16:54.297Z,828.00
2024-01-11T11:17:54.353Z,813.00
2024-01-11T11:18:54.327Z,814.00
2024-01-11T11:19:54.256Z,839.00
2024-01-11T11:20:54.263Z,833.00
2024-01-11T11:21:54.303Z,840.00
2024-01-11T11:22:54.314Z,842.00
2024-01-11T11:23:54.277Z,902.00
2024-01-11T11:24:54.321Z,934.00
2024-01-11T11:25:54.332Z,805.00
2024-01-11T11:26:54.669Z,806.00
2024-01-11T11:27:54.297Z,821.00
2024-01-11T11:28:54.283Z,829.00
2024-01-11T11:29:54.306Z,830.00
2024-01-11T11:30:54.341Z,829.00
2024-01-11T11:31:54.721Z,846.00
2024-01-11T11:32:54.412Z,863.00
2024-01-11T11:33:54.368Z,868.00
2024-01-11T11:34:54.328Z,870.00
2024-01-11T11:35:54.342Z,864.00
2024-01-11T11:36:54.339Z,847.00
2024-01-11T11:37:54.711Z,777.00
2024-01-11T11:38:54.310Z,828.00
2024-01-11T11:39:54.314Z,811.00
2024-01-11T11:40:54.540Z,814.00
2024-01-11T11:41:54.337Z,824.00
2024-01-11T11:42:54.648Z,841.00
2024-01-11T11:43:54.310Z,887.00
2024-01-11T11:44:54.583Z,863.00
2024-01-11T11:45:54.469Z,874.00
2024-01-11T11:46:54.542Z,899.00
2024-01-11T11:47:54.747Z,810.00
2024-01-11T11:48:55.347Z,900.00
2024-01-11T11:49:54.708Z,975.00
2024-01-11T11:50:54.789Z,1000.00
2024-01-11T11:51:54.825Z,1026.00
2024-01-11T11:52:54.978Z,962.00
2024-01-11T11:53:54.877Z,824.00
2024-01-11T11:54:54.952Z,972.00
2024-01-11T11:55:54.994Z,1020.00
2024-01-11T11:56:56.700Z,1022.00
2024-01-11T11:57:55.184Z,977.00
2024-01-11T11:58:55.063Z,1003.00
2024-01-11T11:59:55.291Z,935.00
2024-01-11T12:00:55.134Z,943.00
2024-01-11T12:01:55.117Z,1050.00
2024-01-11T12:02:56.790Z,947.00
2024-01-11T12:03:55.300Z,1083.00
2024-01-11T12:04:55.233Z,963.00
2024-01-11T12:05:55.323Z,943.00
2024-01-11T12:06:55.318Z,957.00
2024-01-11T12:07:55.693Z,977.00
2024-01-11T12:08:57.458Z,1011.00
2024-01-11T12:09:55.360Z,1004.00
2024-01-11T12:10:55.355Z,975.00
2024-01-11T12:12:02.618Z,987.00
2024-01-11T12:12:56.345Z,1082.00
2024-01-11T12:13:55.381Z,994.00
2024-01-11T12:14:55.433Z,999.00
2024-01-11T12:15:55.388Z,1041.00
2024-01-11T12:16:55.335Z,974.00
2024-01-11T12:17:55.442Z,973.00
2024-01-11T12:18:55.409Z,1051.00
2024-01-11T12:19:56.966Z,1140.00
2024-01-11T12:20:55.356Z,1090.00
2024-01-11T12:21:55.407Z,1084.00
2024-01-11T12:22:55.673Z,1080.00
2024-01-11T12:23:55.475Z,1239.00